This is the latest recevied weather packets stored in our database for station/object AJ7DN. If no packets are shown the sender has not sent any weather packets the latest 1 day(s).
| Time | Temp. | Humidity | Pressure | Rain* | Wind** | Luminosity | Snow |
|---|---|---|---|---|---|---|---|
| 1778032204 | 18.33° C | 68% | 1019.5 hPa | 0 mm | - | 29 W/m² | - |
| 1778031597 | 18.89° C | 68% | 1019.5 hPa | 0 mm | - | 40 W/m² | - |
| 1778031295 | 18.89° C | 67% | 1019.5 hPa | 0 mm | - | 39 W/m² | - |
| 1778030991 | 18.89° C | 67% | 1019.4 hPa | 0 mm | - | 41 W/m² | - |
| 1778030688 | 18.89° C | 67% | 1019.8 hPa | 0 mm | - | 46 W/m² | - |
| 1778030385 | 18.89° C | 68% | 1019.5 hPa | 0 mm | - | 49 W/m² | - |
| 1778030082 | 18.89° C | 67% | 1019.7 hPa | 0 mm | - | 52 W/m² | - |
| 1778029779 | 18.89° C | 68% | 1019.4 hPa | 0 mm | - | 58 W/m² | - |
| 1778029478 | 18.89° C | 67% | 1019.5 hPa | 0 mm | - | 54 W/m² | - |
| 1778029173 | 18.89° C | 67% | 1019.5 hPa | 0 mm | - | 55 W/m² | - |
| 1778028872 | 19.44° C | 65% | 1019.7 hPa | 0 mm | - | 70 W/m² | - |
| 1778028265 | 20° C | 63% | 1019.5 hPa | 0 mm | - | 95 W/m² | - |
| 1778027960 | 20° C | 65% | 1019.3 hPa | 0 mm | - | 99 W/m² | - |
| 1778027657 | 20° C | 63% | 1019.7 hPa | 0 mm | - | 115 W/m² | - |
| 1778027354 | 20.56° C | 61% | 1019.9 hPa | 0 mm | - | 262 W/m² | - |
| 1778027050 | 20° C | 64% | 1019.7 hPa | 0 mm | - | 223 W/m² | - |
| 1778026745 | 19.44° C | 64% | 1019.6 hPa | 0 mm | - | 280 W/m² | - |
| 1778026140 | 19.44° C | 64% | 1019.8 hPa | 0 mm | - | 194 W/m² | - |
| 1778025534 | 18.89° C | 66% | 1019.7 hPa | 0 mm | - | 264 W/m² | - |
| 1778025232 | 19.44° C | 65% | 1019.8 hPa | 0 mm | - | 168 W/m² | - |
| 1778024021 | 18.33° C | 67% | 1020.2 hPa | 0 mm | - | 209 W/m² | - |
| 1778023718 | 18.89° C | 67% | 1020.1 hPa | 0 mm | - | 170 W/m² | - |
| 1778023416 | 18.33° C | 68% | 1020.2 hPa | 0 mm | - | 174 W/m² | - |
| 1778023112 | 18.33° C | 68% | 1020.4 hPa | 0 mm | - | 161 W/m² | - |
| 1778022810 | 17.78° C | 70% | 1020.1 hPa | 0 mm | - | 165 W/m² | - |
* Rain latest hour (hover to see other rain measurements)
** Current wind speed in m/s (hover to see current wind gust speed)